sensor_id;sensor_type;location;lat;lon;timestamp;P1;durP1;ratioP1;P2;durP2;ratioP2
51618;SDS011;38518;53.164;5.430;2023-04-22T00:00:39;10.70;;;8.80;;
51618;SDS011;38518;53.164;5.430;2023-04-22T00:03:06;12.30;;;8.95;;
51618;SDS011;38518;53.164;5.430;2023-04-22T00:05:35;10.43;;;8.93;;
51618;SDS011;38518;53.164;5.430;2023-04-22T00:08:02;11.90;;;8.65;;
51618;SDS011;38518;53.164;5.430;2023-04-22T00:10:31;9.27;;;8.38;;
51618;SDS011;38518;53.164;5.430;2023-04-22T00:12:56;11.32;;;8.80;;
51618;SDS011;38518;53.164;5.430;2023-04-22T00:15:22;15.13;;;10.43;;
51618;SDS011;38518;53.164;5.430;2023-04-22T00:17:52;10.65;;;9.40;;
51618;SDS011;38518;53.164;5.430;2023-04-22T00:20:18;12.40;;;11.07;;
51618;SDS011;38518;53.164;5.430;2023-04-22T00:22:47;11.45;;;10.20;;
51618;SDS011;38518;53.164;5.430;2023-04-22T00:25:13;10.48;;;9.13;;
51618;SDS011;38518;53.164;5.430;2023-04-22T00:27:39;11.75;;;10.05;;
51618;SDS011;38518;53.164;5.430;2023-04-22T00:30:05;10.85;;;8.23;;
51618;SDS011;38518;53.164;5.430;2023-04-22T00:32:31;13.52;;;10.23;;
51618;SDS011;38518;53.164;5.430;2023-04-22T00:34:57;12.00;;;10.65;;
51618;SDS011;38518;53.164;5.430;2023-04-22T00:37:23;12.07;;;9.85;;
51618;SDS011;38518;53.164;5.430;2023-04-22T00:39:49;12.10;;;10.32;;
51618;SDS011;38518;53.164;5.430;2023-04-22T00:42:15;12.18;;;10.40;;
51618;SDS011;38518;53.164;5.430;2023-04-22T00:44:41;15.18;;;10.65;;
51618;SDS011;38518;53.164;5.430;2023-04-22T00:47:08;13.38;;;11.43;;
51618;SDS011;38518;53.164;5.430;2023-04-22T00:49:34;14.13;;;12.65;;
51618;SDS011;38518;53.164;5.430;2023-04-22T00:52:01;14.63;;;13.15;;
51618;SDS011;38518;53.164;5.430;2023-04-22T00:54:27;16.75;;;13.10;;
51618;SDS011;38518;53.164;5.430;2023-04-22T00:56:54;16.05;;;14.02;;
51618;SDS011;38518;53.164;5.430;2023-04-22T00:59:22;17.25;;;15.40;;
51618;SDS011;38518;53.164;5.430;2023-04-22T01:01:50;21.75;;;16.52;;
51618;SDS011;38518;53.164;5.430;2023-04-22T01:04:16;16.75;;;11.68;;
51618;SDS011;38518;53.164;5.430;2023-04-22T01:06:43;17.75;;;15.85;;
51618;SDS011;38518;53.164;5.430;2023-04-22T01:09:09;20.30;;;15.93;;
51618;SDS011;38518;53.164;5.430;2023-04-22T01:11:38;18.30;;;15.32;;
51618;SDS011;38518;53.164;5.430;2023-04-22T01:14:03;19.52;;;16.73;;
51618;SDS011;38518;53.164;5.430;2023-04-22T01:16:29;16.48;;;14.38;;
51618;SDS011;38518;53.164;5.430;2023-04-22T01:18:59;15.10;;;13.35;;
51618;SDS011;38518;53.164;5.430;2023-04-22T01:21:26;15.18;;;13.40;;
51618;SDS011;38518;53.164;5.430;2023-04-22T01:23:54;14.57;;;12.93;;
51618;SDS011;38518;53.164;5.430;2023-04-22T01:26:20;14.60;;;13.05;;
51618;SDS011;38518;53.164;5.430;2023-04-22T01:28:46;14.23;;;8.93;;
51618;SDS011;38518;53.164;5.430;2023-04-22T01:31:15;15.02;;;12.63;;
51618;SDS011;38518;53.164;5.430;2023-04-22T01:33:41;17.27;;;14.00;;
51618;SDS011;38518;53.164;5.430;2023-04-22T01:36:08;18.48;;;14.70;;
51618;SDS011;38518;53.164;5.430;2023-04-22T01:38:35;12.75;;;9.60;;
51618;SDS011;38518;53.164;5.430;2023-04-22T01:41:01;14.23;;;12.32;;
51618;SDS011;38518;53.164;5.430;2023-04-22T01:43:27;15.00;;;13.45;;
51618;SDS011;38518;53.164;5.430;2023-04-22T01:45:59;17.52;;;14.30;;
51618;SDS011;38518;53.164;5.430;2023-04-22T01:48:25;17.30;;;15.15;;
51618;SDS011;38518;53.164;5.430;2023-04-22T01:50:51;18.52;;;16.60;;
51618;SDS011;38518;53.164;5.430;2023-04-22T01:53:17;17.83;;;16.02;;
51618;SDS011;38518;53.164;5.430;2023-04-22T01:55:43;20.77;;;18.52;;
51618;SDS011;38518;53.164;5.430;2023-04-22T01:58:12;20.73;;;17.80;;
51618;SDS011;38518;53.164;5.430;2023-04-22T02:00:38;24.23;;;19.50;;
51618;SDS011;38518;53.164;5.430;2023-04-22T02:03:07;20.40;;;18.20;;
51618;SDS011;38518;53.164;5.430;2023-04-22T02:05:33;21.05;;;18.35;;
51618;SDS011;38518;53.164;5.430;2023-04-22T02:08:00;24.50;;;19.60;;
51618;SDS011;38518;53.164;5.430;2023-04-22T02:10:26;24.80;;;20.67;;
51618;SDS011;38518;53.164;5.430;2023-04-22T02:12:52;21.20;;;18.92;;
51618;SDS011;38518;53.164;5.430;2023-04-22T02:15:18;21.30;;;18.50;;
51618;SDS011;38518;53.164;5.430;2023-04-22T02:17:46;24.23;;;20.88;;
51618;SDS011;38518;53.164;5.430;2023-04-22T02:20:12;25.23;;;20.13;;
51618;SDS011;38518;53.164;5.430;2023-04-22T02:22:38;21.15;;;18.85;;
51618;SDS011;38518;53.164;5.430;2023-04-22T02:25:06;23.83;;;21.05;;
51618;SDS011;38518;53.164;5.430;2023-04-22T02:27:32;21.88;;;19.58;;
51618;SDS011;38518;53.164;5.430;2023-04-22T02:29:58;28.13;;;22.10;;
51618;SDS011;38518;53.164;5.430;2023-04-22T02:32:24;23.35;;;20.83;;
51618;SDS011;38518;53.164;5.430;2023-04-22T02:34:50;22.55;;;20.08;;
51618;SDS011;38518;53.164;5.430;2023-04-22T02:37:16;23.33;;;20.77;;
51618;SDS011;38518;53.164;5.430;2023-04-22T02:39:43;24.20;;;20.52;;
51618;SDS011;38518;53.164;5.430;2023-04-22T02:42:09;25.35;;;21.67;;
51618;SDS011;38518;53.164;5.430;2023-04-22T02:44:34;27.42;;;22.65;;
51618;SDS011;38518;53.164;5.430;2023-04-22T02:47:00;26.80;;;22.25;;
51618;SDS011;38518;53.164;5.430;2023-04-22T02:49:27;27.15;;;22.30;;
51618;SDS011;38518;53.164;5.430;2023-04-22T02:51:53;27.17;;;20.70;;
51618;SDS011;38518;53.164;5.430;2023-04-22T02:54:21;27.48;;;23.23;;
51618;SDS011;38518;53.164;5.430;2023-04-22T02:56:47;37.92;;;26.35;;
51618;SDS011;38518;53.164;5.430;2023-04-22T02:59:12;25.83;;;21.52;;
51618;SDS011;38518;53.164;5.430;2023-04-22T03:01:38;56.15;;;31.05;;
51618;SDS011;38518;53.164;5.430;2023-04-22T03:04:04;26.90;;;22.42;;
51618;SDS011;38518;53.164;5.430;2023-04-22T03:06:30;33.45;;;24.35;;
51618;SDS011;38518;53.164;5.430;2023-04-22T03:08:56;41.20;;;26.77;;
51618;SDS011;38518;53.164;5.430;2023-04-22T03:11:22;50.70;;;25.77;;
51618;SDS011;38518;53.164;5.430;2023-04-22T03:13:50;76.47;;;19.50;;
51618;SDS011;38518;53.164;5.430;2023-04-22T03:16:16;186.48;;;30.90;;
51618;SDS011;38518;53.164;5.430;2023-04-22T03:18:45;211.32;;;37.80;;
51618;SDS011;38518;53.164;5.430;2023-04-22T03:21:10;124.07;;;26.13;;
51618;SDS011;38518;53.164;5.430;2023-04-22T03:23:36;52.70;;;18.30;;
51618;SDS011;38518;53.164;5.430;2023-04-22T03:26:02;110.28;;;35.15;;
51618;SDS011;38518;53.164;5.430;2023-04-22T03:28:28;87.18;;;31.10;;
51618;SDS011;38518;53.164;5.430;2023-04-22T03:30:53;117.65;;;33.00;;
51618;SDS011;38518;53.164;5.430;2023-04-22T03:33:19;65.80;;;25.45;;
51618;SDS011;38518;53.164;5.430;2023-04-22T03:35:49;68.30;;;25.42;;
51618;SDS011;38518;53.164;5.430;2023-04-22T03:38:15;47.88;;;23.95;;
51618;SDS011;38518;53.164;5.430;2023-04-22T03:40:41;30.83;;;20.70;;
51618;SDS011;38518;53.164;5.430;2023-04-22T03:43:10;20.55;;;14.30;;
51618;SDS011;38518;53.164;5.430;2023-04-22T03:45:36;22.83;;;14.77;;
51618;SDS011;38518;53.164;5.430;2023-04-22T03:48:02;23.98;;;21.30;;
51618;SDS011;38518;53.164;5.430;2023-04-22T03:50:27;27.38;;;23.38;;
51618;SDS011;38518;53.164;5.430;2023-04-22T03:52:53;25.85;;;22.83;;
51618;SDS011;38518;53.164;5.430;2023-04-22T03:55:20;26.60;;;23.08;;
51618;SDS011;38518;53.164;5.430;2023-04-22T03:57:45;26.33;;;23.48;;
51618;SDS011;38518;53.164;5.430;2023-04-22T04:00:12;30.13;;;25.42;;
51618;SDS011;38518;53.164;5.430;2023-04-22T04:02:38;24.92;;;22.33;;
51618;SDS011;38518;53.164;5.430;2023-04-22T04:05:06;27.08;;;19.65;;
51618;SDS011;38518;53.164;5.430;2023-04-22T04:07:33;34.83;;;26.98;;
51618;SDS011;38518;53.164;5.430;2023-04-22T04:10:04;31.60;;;25.52;;
51618;SDS011;38518;53.164;5.430;2023-04-22T04:12:34;28.15;;;25.02;;
51618;SDS011;38518;53.164;5.430;2023-04-22T04:15:02;28.48;;;25.25;;
51618;SDS011;38518;53.164;5.430;2023-04-22T04:17:31;24.50;;;17.13;;
51618;SDS011;38518;53.164;5.430;2023-04-22T04:20:00;28.20;;;24.75;;
51618;SDS011;38518;53.164;5.430;2023-04-22T04:22:28;30.27;;;25.95;;
51618;SDS011;38518;53.164;5.430;2023-04-22T04:25:02;34.90;;;27.88;;
51618;SDS011;38518;53.164;5.430;2023-04-22T04:27:28;24.20;;;19.05;;
51618;SDS011;38518;53.164;5.430;2023-04-22T04:29:54;31.15;;;25.88;;
51618;SDS011;38518;53.164;5.430;2023-04-22T04:32:20;29.42;;;26.10;;
51618;SDS011;38518;53.164;5.430;2023-04-22T04:34:46;24.77;;;18.48;;
51618;SDS011;38518;53.164;5.430;2023-04-22T04:37:15;32.03;;;27.02;;
51618;SDS011;38518;53.164;5.430;2023-04-22T04:39:44;34.45;;;26.88;;
51618;SDS011;38518;53.164;5.430;2023-04-22T04:42:16;27.83;;;24.83;;
51618;SDS011;38518;53.164;5.430;2023-04-22T04:44:46;33.65;;;23.83;;
51618;SDS011;38518;53.164;5.430;2023-04-22T04:47:16;36.53;;;29.45;;
51618;SDS011;38518;53.164;5.430;2023-04-22T04:49:42;26.63;;;23.88;;
51618;SDS011;38518;53.164;5.430;2023-04-22T04:52:12;45.38;;;31.50;;
51618;SDS011;38518;53.164;5.430;2023-04-22T04:54:38;35.58;;;27.90;;
51618;SDS011;38518;53.164;5.430;2023-04-22T04:57:07;59.70;;;37.17;;
51618;SDS011;38518;53.164;5.430;2023-04-22T04:59:36;25.67;;;18.58;;
51618;SDS011;38518;53.164;5.430;2023-04-22T05:02:07;36.38;;;28.83;;
51618;SDS011;38518;53.164;5.430;2023-04-22T05:04:33;29.33;;;21.92;;
51618;SDS011;38518;53.164;5.430;2023-04-22T05:06:58;32.20;;;27.80;;
51618;SDS011;38518;53.164;5.430;2023-04-22T05:09:29;85.65;;;42.20;;
51618;SDS011;38518;53.164;5.430;2023-04-22T05:12:07;35.22;;;28.00;;
51618;SDS011;38518;53.164;5.430;2023-04-22T05:14:32;132.52;;;44.58;;
51618;SDS011;38518;53.164;5.430;2023-04-22T05:16:59;26.67;;;23.90;;
51618;SDS011;38518;53.164;5.430;2023-04-22T05:19:24;37.70;;;27.98;;
51618;SDS011;38518;53.164;5.430;2023-04-22T05:22:00;38.13;;;30.00;;
51618;SDS011;38518;53.164;5.430;2023-04-22T05:24:35;26.58;;;19.17;;
51618;SDS011;38518;53.164;5.430;2023-04-22T05:27:01;34.13;;;29.67;;
51618;SDS011;38518;53.164;5.430;2023-04-22T05:29:27;51.00;;;36.80;;
51618;SDS011;38518;53.164;5.430;2023-04-22T05:31:56;35.38;;;30.17;;
51618;SDS011;38518;53.164;5.430;2023-04-22T05:34:24;42.17;;;33.15;;
51618;SDS011;38518;53.164;5.430;2023-04-22T05:36:58;40.08;;;22.33;;
51618;SDS011;38518;53.164;5.430;2023-04-22T05:39:38;35.10;;;23.92;;
51618;SDS011;38518;53.164;5.430;2023-04-22T05:46:11;40.30;;;33.00;;
51618;SDS011;38518;53.164;5.430;2023-04-22T05:49:07;38.80;;;30.55;;
51618;SDS011;38518;53.164;5.430;2023-04-22T05:51:48;30.80;;;27.50;;
51618;SDS011;38518;53.164;5.430;2023-04-22T05:54:50;32.08;;;28.63;;
51618;SDS011;38518;53.164;5.430;2023-04-22T05:57:25;27.30;;;24.40;;
51618;SDS011;38518;53.164;5.430;2023-04-22T05:59:57;26.13;;;23.58;;
51618;SDS011;38518;53.164;5.430;2023-04-22T06:02:39;22.60;;;20.17;;
51618;SDS011;38518;53.164;5.430;2023-04-22T06:05:27;20.40;;;17.20;;
51618;SDS011;38518;53.164;5.430;2023-04-22T06:08:11;19.10;;;17.25;;
51618;SDS011;38518;53.164;5.430;2023-04-22T06:10:40;27.23;;;16.15;;
51618;SDS011;38518;53.164;5.430;2023-04-22T06:13:13;71.40;;;20.33;;
51618;SDS011;38518;53.164;5.430;2023-04-22T06:15:42;105.60;;;21.58;;
51618;SDS011;38518;53.164;5.430;2023-04-22T06:18:11;72.00;;;20.50;;
51618;SDS011;38518;53.164;5.430;2023-04-22T06:21:02;14.07;;;12.82;;
51618;SDS011;38518;53.164;5.430;2023-04-22T06:23:32;14.30;;;12.82;;
51618;SDS011;38518;53.164;5.430;2023-04-22T06:26:15;27.50;;;14.50;;
51618;SDS011;38518;53.164;5.430;2023-04-22T06:28:51;13.90;;;12.65;;
51618;SDS011;38518;53.164;5.430;2023-04-22T06:31:59;13.23;;;12.02;;
51618;SDS011;38518;53.164;5.430;2023-04-22T06:34:28;13.73;;;12.32;;
51618;SDS011;38518;53.164;5.430;2023-04-22T06:36:55;13.85;;;12.48;;
51618;SDS011;38518;53.164;5.430;2023-04-22T06:39:22;14.05;;;12.75;;
51618;SDS011;38518;53.164;5.430;2023-04-22T06:41:51;13.55;;;12.35;;
51618;SDS011;38518;53.164;5.430;2023-04-22T06:44:17;13.30;;;12.00;;
51618;SDS011;38518;53.164;5.430;2023-04-22T06:46:56;12.85;;;11.65;;
51618;SDS011;38518;53.164;5.430;2023-04-22T06:49:42;12.27;;;11.18;;
51618;SDS011;38518;53.164;5.430;2023-04-22T06:52:09;12.80;;;11.70;;
51618;SDS011;38518;53.164;5.430;2023-04-22T06:54:35;13.35;;;12.13;;
51618;SDS011;38518;53.164;5.430;2023-04-22T06:57:01;12.48;;;11.38;;
51618;SDS011;38518;53.164;5.430;2023-04-22T06:59:27;12.63;;;11.48;;
51618;SDS011;38518;53.164;5.430;2023-04-22T07:01:53;12.77;;;11.57;;
51618;SDS011;38518;53.164;5.430;2023-04-22T07:04:18;12.82;;;11.65;;
51618;SDS011;38518;53.164;5.430;2023-04-22T07:06:44;12.88;;;11.68;;
51618;SDS011;38518;53.164;5.430;2023-04-22T07:09:10;13.25;;;12.07;;
51618;SDS011;38518;53.164;5.430;2023-04-22T07:11:36;13.75;;;12.55;;
51618;SDS011;38518;53.164;5.430;2023-04-22T07:14:01;13.90;;;12.70;;
51618;SDS011;38518;53.164;5.430;2023-04-22T07:16:27;15.07;;;13.77;;
51618;SDS011;38518;53.164;5.430;2023-04-22T07:18:53;15.18;;;13.85;;
51618;SDS011;38518;53.164;5.430;2023-04-22T07:21:19;16.20;;;14.80;;
51618;SDS011;38518;53.164;5.430;2023-04-22T07:23:45;14.32;;;13.02;;
51618;SDS011;38518;53.164;5.430;2023-04-22T07:26:11;15.95;;;14.45;;
51618;SDS011;38518;53.164;5.430;2023-04-22T07:28:36;15.48;;;13.88;;
51618;SDS011;38518;53.164;5.430;2023-04-22T07:31:02;15.88;;;14.30;;
51618;SDS011;38518;53.164;5.430;2023-04-22T07:33:28;14.98;;;13.57;;
51618;SDS011;38518;53.164;5.430;2023-04-22T07:35:54;15.45;;;14.05;;
51618;SDS011;38518;53.164;5.430;2023-04-22T07:38:19;16.45;;;14.88;;
51618;SDS011;38518;53.164;5.430;2023-04-22T07:40:45;15.75;;;14.25;;
51618;SDS011;38518;53.164;5.430;2023-04-22T07:43:11;16.42;;;14.93;;
51618;SDS011;38518;53.164;5.430;2023-04-22T07:45:37;16.92;;;15.23;;
51618;SDS011;38518;53.164;5.430;2023-04-22T07:48:03;16.35;;;14.85;;
51618;SDS011;38518;53.164;5.430;2023-04-22T07:50:38;16.65;;;15.15;;
51618;SDS011;38518;53.164;5.430;2023-04-22T07:53:17;17.75;;;16.05;;
51618;SDS011;38518;53.164;5.430;2023-04-22T07:56:06;17.55;;;15.95;;
51618;SDS011;38518;53.164;5.430;2023-04-22T07:58:33;17.33;;;15.73;;
51618;SDS011;38518;53.164;5.430;2023-04-22T08:04:52;17.52;;;15.93;;
51618;SDS011;38518;53.164;5.430;2023-04-22T08:07:18;17.10;;;15.40;;
51618;SDS011;38518;53.164;5.430;2023-04-22T08:09:44;17.05;;;15.43;;
51618;SDS011;38518;53.164;5.430;2023-04-22T08:12:10;17.27;;;15.57;;
51618;SDS011;38518;53.164;5.430;2023-04-22T08:14:35;17.55;;;15.95;;
51618;SDS011;38518;53.164;5.430;2023-04-22T08:17:01;17.70;;;15.98;;
51618;SDS011;38518;53.164;5.430;2023-04-22T08:19:27;18.27;;;16.48;;
51618;SDS011;38518;53.164;5.430;2023-04-22T08:21:53;18.45;;;16.73;;
51618;SDS011;38518;53.164;5.430;2023-04-22T08:24:19;18.73;;;16.92;;
51618;SDS011;38518;53.164;5.430;2023-04-22T08:26:48;19.20;;;17.40;;
51618;SDS011;38518;53.164;5.430;2023-04-22T08:29:13;19.35;;;17.40;;
51618;SDS011;38518;53.164;5.430;2023-04-22T08:31:42;17.67;;;16.08;;
51618;SDS011;38518;53.164;5.430;2023-04-22T08:34:10;16.58;;;14.98;;
51618;SDS011;38518;53.164;5.430;2023-04-22T08:36:40;16.42;;;14.82;;
51618;SDS011;38518;53.164;5.430;2023-04-22T08:39:16;16.25;;;14.75;;
51618;SDS011;38518;53.164;5.430;2023-04-22T08:41:42;16.65;;;15.05;;
51618;SDS011;38518;53.164;5.430;2023-04-22T08:44:12;17.40;;;15.70;;
51618;SDS011;38518;53.164;5.430;2023-04-22T08:46:44;18.25;;;16.35;;
51618;SDS011;38518;53.164;5.430;2023-04-22T08:49:12;18.02;;;16.15;;
51618;SDS011;38518;53.164;5.430;2023-04-22T08:51:39;18.40;;;16.60;;
51618;SDS011;38518;53.164;5.430;2023-04-22T08:54:06;17.25;;;15.55;;
51618;SDS011;38518;53.164;5.430;2023-04-22T08:56:33;16.90;;;15.40;;
51618;SDS011;38518;53.164;5.430;2023-04-22T08:59:01;18.60;;;16.50;;
51618;SDS011;38518;53.164;5.430;2023-04-22T09:01:29;17.77;;;16.02;;
51618;SDS011;38518;53.164;5.430;2023-04-22T09:03:57;17.52;;;15.82;;
51618;SDS011;38518;53.164;5.430;2023-04-22T09:06:24;17.45;;;15.75;;
51618;SDS011;38518;53.164;5.430;2023-04-22T09:08:50;18.23;;;16.33;;
51618;SDS011;38518;53.164;5.430;2023-04-22T09:11:17;17.38;;;15.60;;
51618;SDS011;38518;53.164;5.430;2023-04-22T09:13:43;17.33;;;15.50;;
51618;SDS011;38518;53.164;5.430;2023-04-22T09:16:09;16.92;;;15.32;;
51618;SDS011;38518;53.164;5.430;2023-04-22T09:18:38;16.27;;;14.73;;
51618;SDS011;38518;53.164;5.430;2023-04-22T09:23:45;17.33;;;15.45;;
51618;SDS011;38518;53.164;5.430;2023-04-22T09:26:18;17.35;;;15.65;;
51618;SDS011;38518;53.164;5.430;2023-04-22T09:28:52;16.48;;;14.82;;
51618;SDS011;38518;53.164;5.430;2023-04-22T09:31:28;16.02;;;14.43;;
51618;SDS011;38518;53.164;5.430;2023-04-22T09:33:56;16.23;;;14.57;;
51618;SDS011;38518;53.164;5.430;2023-04-22T09:36:26;15.02;;;13.63;;
51618;SDS011;38518;53.164;5.430;2023-04-22T09:38:53;15.38;;;13.88;;
51618;SDS011;38518;53.164;5.430;2023-04-22T09:41:30;16.13;;;14.52;;
51618;SDS011;38518;53.164;5.430;2023-04-22T09:44:01;14.88;;;13.45;;
51618;SDS011;38518;53.164;5.430;2023-04-22T09:46:28;14.23;;;12.93;;
51618;SDS011;38518;53.164;5.430;2023-04-22T09:48:55;14.18;;;12.88;;
51618;SDS011;38518;53.164;5.430;2023-04-22T09:51:24;13.68;;;12.38;;
51618;SDS011;38518;53.164;5.430;2023-04-22T09:59:06;14.43;;;13.13;;
51618;SDS011;38518;53.164;5.430;2023-04-22T10:01:39;14.10;;;12.73;;
51618;SDS011;38518;53.164;5.430;2023-04-22T10:04:06;13.77;;;12.48;;
51618;SDS011;38518;53.164;5.430;2023-04-22T10:06:34;14.10;;;12.80;;
51618;SDS011;38518;53.164;5.430;2023-04-22T10:09:00;14.05;;;12.57;;
51618;SDS011;38518;53.164;5.430;2023-04-22T10:11:26;13.80;;;12.43;;
51618;SDS011;38518;53.164;5.430;2023-04-22T10:13:55;14.10;;;12.70;;
51618;SDS011;38518;53.164;5.430;2023-04-22T10:16:21;14.65;;;13.23;;
51618;SDS011;38518;53.164;5.430;2023-04-22T10:18:50;13.90;;;12.70;;
51618;SDS011;38518;53.164;5.430;2023-04-22T10:21:18;13.68;;;12.38;;
51618;SDS011;38518;53.164;5.430;2023-04-22T10:23:46;14.00;;;12.52;;
51618;SDS011;38518;53.164;5.430;2023-04-22T10:29:16;14.05;;;12.75;;
51618;SDS011;38518;53.164;5.430;2023-04-22T10:31:50;14.93;;;13.55;;
51618;SDS011;38518;53.164;5.430;2023-04-22T10:34:23;14.60;;;13.23;;
51618;SDS011;38518;53.164;5.430;2023-04-22T10:36:56;14.15;;;12.85;;
51618;SDS011;38518;53.164;5.430;2023-04-22T10:39:23;13.73;;;12.50;;
51618;SDS011;38518;53.164;5.430;2023-04-22T10:41:50;13.63;;;12.27;;
51618;SDS011;38518;53.164;5.430;2023-04-22T10:44:50;14.60;;;12.43;;
51618;SDS011;38518;53.164;5.430;2023-04-22T10:47:31;13.80;;;12.50;;
51618;SDS011;38518;53.164;5.430;2023-04-22T10:52:36;14.57;;;13.18;;
51618;SDS011;38518;53.164;5.430;2023-04-22T10:55:05;14.85;;;13.35;;
51618;SDS011;38518;53.164;5.430;2023-04-22T10:57:32;14.23;;;12.85;;
51618;SDS011;38518;53.164;5.430;2023-04-22T11:01:05;13.23;;;11.95;;
51618;SDS011;38518;53.164;5.430;2023-04-22T11:03:12;13.93;;;12.65;;
51618;SDS011;38518;53.164;5.430;2023-04-22T11:05:39;14.25;;;12.85;;
51618;SDS011;38518;53.164;5.430;2023-04-22T11:08:08;13.63;;;12.38;;
51618;SDS011;38518;53.164;5.430;2023-04-22T11:10:47;13.18;;;11.98;;
51618;SDS011;38518;53.164;5.430;2023-04-22T11:13:15;13.73;;;12.40;;
51618;SDS011;38518;53.164;5.430;2023-04-22T11:15:44;13.43;;;12.18;;
51618;SDS011;38518;53.164;5.430;2023-04-22T11:18:16;13.80;;;12.50;;
51618;SDS011;38518;53.164;5.430;2023-04-22T11:20:46;12.70;;;11.40;;
51618;SDS011;38518;53.164;5.430;2023-04-22T11:23:16;12.70;;;11.43;;
51618;SDS011;38518;53.164;5.430;2023-04-22T11:25:43;12.45;;;11.35;;
51618;SDS011;38518;53.164;5.430;2023-04-22T11:28:09;12.20;;;11.00;;
51618;SDS011;38518;53.164;5.430;2023-04-22T11:30:35;12.93;;;11.73;;
51618;SDS011;38518;53.164;5.430;2023-04-22T11:33:01;12.55;;;11.43;;
51618;SDS011;38518;53.164;5.430;2023-04-22T11:35:31;11.15;;;10.15;;
51618;SDS011;38518;53.164;5.430;2023-04-22T11:38:02;11.77;;;10.45;;
51618;SDS011;38518;53.164;5.430;2023-04-22T11:40:33;11.48;;;10.27;;
51618;SDS011;38518;53.164;5.430;2023-04-22T11:43:05;11.55;;;10.45;;
51618;SDS011;38518;53.164;5.430;2023-04-22T11:45:32;11.60;;;10.50;;
51618;SDS011;38518;53.164;5.430;2023-04-22T11:48:03;11.10;;;10.00;;
51618;SDS011;38518;53.164;5.430;2023-04-22T11:50:31;12.48;;;11.38;;
51618;SDS011;38518;53.164;5.430;2023-04-22T11:53:18;12.10;;;10.90;;
51618;SDS011;38518;53.164;5.430;2023-04-22T11:55:45;11.63;;;10.48;;
51618;SDS011;38518;53.164;5.430;2023-04-22T11:58:19;12.10;;;10.95;;
51618;SDS011;38518;53.164;5.430;2023-04-22T12:00:52;12.68;;;11.32;;
51618;SDS011;38518;53.164;5.430;2023-04-22T12:03:20;12.68;;;11.38;;
51618;SDS011;38518;53.164;5.430;2023-04-22T12:08:18;13.32;;;12.13;;
51618;SDS011;38518;53.164;5.430;2023-04-22T12:10:53;11.68;;;10.63;;
51618;SDS011;38518;53.164;5.430;2023-04-22T12:13:24;11.40;;;10.27;;
51618;SDS011;38518;53.164;5.430;2023-04-22T12:15:54;13.20;;;12.00;;
51618;SDS011;38518;53.164;5.430;2023-04-22T12:18:34;14.68;;;13.15;;
51618;SDS011;38518;53.164;5.430;2023-04-22T12:21:08;15.38;;;13.88;;
51618;SDS011;38518;53.164;5.430;2023-04-22T12:23:48;14.10;;;12.70;;
51618;SDS011;38518;53.164;5.430;2023-04-22T12:26:14;12.63;;;11.43;;
51618;SDS011;38518;53.164;5.430;2023-04-22T12:28:41;12.65;;;11.45;;
51618;SDS011;38518;53.164;5.430;2023-04-22T12:31:08;12.35;;;11.25;;
51618;SDS011;38518;53.164;5.430;2023-04-22T12:33:35;12.90;;;11.70;;
51618;SDS011;38518;53.164;5.430;2023-04-22T12:36:01;12.52;;;11.32;;
51618;SDS011;38518;53.164;5.430;2023-04-22T12:38:28;10.75;;;9.70;;
51618;SDS011;38518;53.164;5.430;2023-04-22T12:40:54;11.82;;;10.02;;
51618;SDS011;38518;53.164;5.430;2023-04-22T12:43:20;9.90;;;9.00;;
51618;SDS011;38518;53.164;5.430;2023-04-22T12:45:46;9.43;;;7.78;;
51618;SDS011;38518;53.164;5.430;2023-04-22T12:48:12;7.70;;;7.00;;
51618;SDS011;38518;53.164;5.430;2023-04-22T12:50:37;8.23;;;7.43;;
51618;SDS011;38518;53.164;5.430;2023-04-22T12:53:04;7.55;;;6.85;;
51618;SDS011;38518;53.164;5.430;2023-04-22T12:55:30;7.45;;;6.75;;
51618;SDS011;38518;53.164;5.430;2023-04-22T12:57:57;7.95;;;7.15;;
51618;SDS011;38518;53.164;5.430;2023-04-22T13:00:32;8.20;;;7.38;;
51618;SDS011;38518;53.164;5.430;2023-04-22T13:05:29;8.52;;;7.72;;
51618;SDS011;38518;53.164;5.430;2023-04-22T13:07:55;12.93;;;11.55;;
51618;SDS011;38518;53.164;5.430;2023-04-22T13:10:23;14.60;;;13.20;;
51618;SDS011;38518;53.164;5.430;2023-04-22T13:12:53;16.13;;;13.80;;
51618;SDS011;38518;53.164;5.430;2023-04-22T13:15:19;15.65;;;13.88;;
51618;SDS011;38518;53.164;5.430;2023-04-22T13:17:45;15.25;;;13.85;;
51618;SDS011;38518;53.164;5.430;2023-04-22T13:20:11;14.63;;;13.27;;
51618;SDS011;38518;53.164;5.430;2023-04-22T13:22:39;14.73;;;13.30;;
51618;SDS011;38518;53.164;5.430;2023-04-22T13:25:06;14.55;;;13.15;;
51618;SDS011;38518;53.164;5.430;2023-04-22T13:27:33;14.93;;;13.43;;
51618;SDS011;38518;53.164;5.430;2023-04-22T13:29:59;14.27;;;12.98;;
51618;SDS011;38518;53.164;5.430;2023-04-22T13:32:25;14.10;;;12.70;;
51618;SDS011;38518;53.164;5.430;2023-04-22T13:34:51;16.65;;;15.05;;
51618;SDS011;38518;53.164;5.430;2023-04-22T13:37:17;17.70;;;15.85;;
51618;SDS011;38518;53.164;5.430;2023-04-22T13:39:44;17.48;;;15.88;;
51618;SDS011;38518;53.164;5.430;2023-04-22T13:42:16;17.65;;;15.95;;
51618;SDS011;38518;53.164;5.430;2023-04-22T13:44:42;18.00;;;16.17;;
51618;SDS011;38518;53.164;5.430;2023-04-22T13:47:08;16.40;;;14.70;;
51618;SDS011;38518;53.164;5.430;2023-04-22T13:49:37;17.10;;;15.30;;
51618;SDS011;38518;53.164;5.430;2023-04-22T13:52:02;18.85;;;15.27;;
51618;SDS011;38518;53.164;5.430;2023-04-22T13:54:31;16.00;;;14.32;;
51618;SDS011;38518;53.164;5.430;2023-04-22T13:56:57;15.38;;;13.73;;
51618;SDS011;38518;53.164;5.430;2023-04-22T13:59:22;16.23;;;14.52;;
51618;SDS011;38518;53.164;5.430;2023-04-22T14:01:48;15.95;;;13.77;;
51618;SDS011;38518;53.164;5.430;2023-04-22T14:04:14;14.13;;;12.65;;
51618;SDS011;38518;53.164;5.430;2023-04-22T14:06:40;16.23;;;14.52;;
51618;SDS011;38518;53.164;5.430;2023-04-22T14:09:06;25.17;;;16.48;;
51618;SDS011;38518;53.164;5.430;2023-04-22T14:11:32;24.17;;;17.40;;
51618;SDS011;38518;53.164;5.430;2023-04-22T14:13:58;20.75;;;17.73;;
51618;SDS011;38518;53.164;5.430;2023-04-22T14:16:23;20.52;;;18.02;;
51618;SDS011;38518;53.164;5.430;2023-04-22T14:18:49;21.45;;;19.20;;
51618;SDS011;38518;53.164;5.430;2023-04-22T14:21:15;26.23;;;20.40;;
51618;SDS011;38518;53.164;5.430;2023-04-22T14:23:41;25.80;;;21.13;;
51618;SDS011;38518;53.164;5.430;2023-04-22T14:26:08;28.77;;;23.08;;
51618;SDS011;38518;53.164;5.430;2023-04-22T14:28:35;25.40;;;20.63;;
51618;SDS011;38518;53.164;5.430;2023-04-22T14:31:02;30.13;;;22.08;;
51618;SDS011;38518;53.164;5.430;2023-04-22T14:33:28;26.33;;;22.70;;
51618;SDS011;38518;53.164;5.430;2023-04-22T14:35:54;35.03;;;23.42;;
51618;SDS011;38518;53.164;5.430;2023-04-22T14:38:21;27.58;;;21.63;;
51618;SDS011;38518;53.164;5.430;2023-04-22T14:40:47;26.40;;;22.10;;
51618;SDS011;38518;53.164;5.430;2023-04-22T14:43:14;25.42;;;21.77;;
51618;SDS011;38518;53.164;5.430;2023-04-22T14:45:40;26.27;;;21.70;;
51618;SDS011;38518;53.164;5.430;2023-04-22T14:48:07;26.30;;;21.52;;
51618;SDS011;38518;53.164;5.430;2023-04-22T14:50:32;28.50;;;23.05;;
51618;SDS011;38518;53.164;5.430;2023-04-22T14:53:01;29.60;;;23.50;;
51618;SDS011;38518;53.164;5.430;2023-04-22T14:55:27;34.58;;;25.00;;
51618;SDS011;38518;53.164;5.430;2023-04-22T14:58:11;31.83;;;23.80;;